Amelia Court House, Virginia
Current Conditions -  °F | °C
As of 1:15 AM on Sunday 26 Oct 2014 (Local Time) from KW81 Reporting Station
Clear Clear  
Wind Chill: 60°   Ceiling: Unl
Heat Index: 60°   Visibility: 10mi
Dew Point: 47°   Wind: 9mph
Humidity: 61%   Direction: 270°W
Pressure: 29.78"   Gusts: NA
Location:  37.34°N, 77.98°W
Report Text: KW81 260515Z AUTO 27008KT 10SM CLR 16/08 A2978 RMK AO1 T01550081
Loading
Personal Weather Stations






























Interactive Weather Map
Tropical Storm Tracking
New forecast layout! Learn more

10-Day Weather Forecast

Advertisements
Track Severe Weather on mobile